createdAt,value
2018-03-19T00:00:42.304Z,-3.6
2018-03-19T00:01:44.725Z,-3.6
2018-03-19T00:02:47.427Z,-3.6
2018-03-19T00:03:49.839Z,-3.5
2018-03-19T00:04:52.271Z,-3.6
2018-03-19T00:05:54.688Z,-3.6
2018-03-19T00:06:57.102Z,-3.6
2018-03-19T00:07:59.829Z,-3.6
2018-03-19T00:09:02.259Z,-3.6
2018-03-19T00:10:04.675Z,-3.6
2018-03-19T00:11:07.107Z,-3.6
2018-03-19T00:12:09.803Z,-3.6
2018-03-19T00:13:12.230Z,-3.6
2018-03-19T00:14:14.930Z,-3.6
2018-03-19T00:15:17.642Z,-3.6
2018-03-19T00:16:20.353Z,-3.6
2018-03-19T00:17:22.781Z,-3.6
2018-03-19T00:18:25.200Z,-3.6
2018-03-19T00:19:27.916Z,-3.6
2018-03-19T00:20:30.334Z,-3.6
2018-03-19T00:21:32.749Z,-3.6
2018-03-19T00:22:35.453Z,-3.7
2018-03-19T00:23:37.874Z,-3.7
2018-03-19T00:24:40.289Z,-3.8
2018-03-19T00:25:42.712Z,-3.8
2018-03-19T00:26:45.136Z,-3.8
2018-03-19T00:27:47.557Z,-3.8
2018-03-19T00:28:49.969Z,-3.8
2018-03-19T00:29:52.704Z,-3.8
2018-03-19T00:30:55.125Z,-3.8
2018-03-19T00:31:57.832Z,-3.8
2018-03-19T00:33:00.243Z,-3.8
2018-03-19T00:34:02.667Z,-3.8
2018-03-19T00:35:05.363Z,-3.8
2018-03-19T00:36:07.790Z,-3.7
2018-03-19T00:37:10.208Z,-3.8
2018-03-19T00:38:12.915Z,-3.8
2018-03-19T00:39:15.654Z,-3.9
2018-03-19T00:40:18.074Z,-3.9
2018-03-19T00:41:20.776Z,-3.8
2018-03-19T00:42:23.795Z,-3.8
2018-03-19T00:43:26.504Z,-3.9
2018-03-19T00:44:28.931Z,-3.9
2018-03-19T00:45:31.354Z,-3.9
2018-03-19T00:46:33.771Z,-3.9
2018-03-19T00:47:36.188Z,-3.9
2018-03-19T00:48:38.894Z,-3.9
2018-03-19T00:49:41.312Z,-3.9
2018-03-19T00:50:43.732Z,-3.9
2018-03-19T00:51:46.142Z,-3.9
2018-03-19T00:52:48.569Z,-3.9
2018-03-19T00:53:50.982Z,-3.9
2018-03-19T00:54:53.700Z,-3.9
2018-03-19T00:55:56.413Z,-3.9
2018-03-19T00:56:59.119Z,-3.9
2018-03-19T00:58:01.838Z,-4
2018-03-19T00:59:04.256Z,-3.9
2018-03-19T01:00:06.957Z,-3.9
2018-03-19T01:01:09.371Z,-3.9
2018-03-19T01:02:12.092Z,-3.9
2018-03-19T01:03:14.497Z,-3.9
2018-03-19T01:04:16.933Z,-4
2018-03-19T01:05:19.342Z,-3.9
2018-03-19T01:06:21.763Z,-4
2018-03-19T01:07:24.490Z,-4
2018-03-19T01:08:26.909Z,-3.9
2018-03-19T01:09:29.319Z,-3.9
2018-03-19T01:10:31.747Z,-3.9
2018-03-19T01:11:34.158Z,-3.9
2018-03-19T01:12:36.627Z,-3.9
2018-03-19T01:13:38.997Z,-4
2018-03-19T01:14:41.707Z,-3.9
2018-03-19T01:15:44.126Z,-3.9
2018-03-19T01:16:46.563Z,-4
2018-03-19T01:17:49.253Z,-4
2018-03-19T01:18:51.691Z,-4
2018-03-19T01:19:54.404Z,-4
2018-03-19T01:20:57.105Z,-4.1
2018-03-19T01:21:59.524Z,-4.1
2018-03-19T01:23:01.949Z,-4.1
2018-03-19T01:24:04.640Z,-4.1
2018-03-19T01:25:07.093Z,-4.1
2018-03-19T01:26:10.057Z,-4.1
2018-03-19T01:27:12.769Z,-4.2
2018-03-19T01:28:15.183Z,-4.2
2018-03-19T01:29:17.607Z,-4.2
2018-03-19T01:30:20.318Z,-4.2
2018-03-19T01:31:22.737Z,-4.2
2018-03-19T01:32:25.155Z,-4.2
2018-03-19T01:33:28.140Z,-4.2
2018-03-19T01:34:30.838Z,-4.2
2018-03-19T01:35:33.266Z,-4.2
2018-03-19T01:36:35.686Z,-4.2
2018-03-19T01:37:38.092Z,-4.2
2018-03-19T01:38:40.511Z,-4.2
2018-03-19T01:39:42.932Z,-4.2
2018-03-19T01:40:45.352Z,-4.2
2018-03-19T01:41:47.779Z,-4.2
2018-03-19T01:42:50.182Z,-4.2
2018-03-19T01:43:52.606Z,-4.2
2018-03-19T01:44:55.022Z,-4.2
2018-03-19T01:45:57.746Z,-4.2
2018-03-19T01:47:00.159Z,-4.2
2018-03-19T01:48:02.573Z,-4.3
2018-03-19T01:49:04.989Z,-4.3
2018-03-19T01:50:07.413Z,-4.3
2018-03-19T01:51:09.830Z,-4.3
2018-03-19T01:52:12.532Z,-4.3
2018-03-19T01:53:14.954Z,-4.3
2018-03-19T01:54:17.378Z,-4.3
2018-03-19T01:55:19.799Z,-4.3
2018-03-19T01:56:22.568Z,-4.3
2018-03-19T01:57:24.986Z,-4.3
2018-03-19T01:58:27.697Z,-4.4
2018-03-19T01:59:30.103Z,-4.4
2018-03-19T02:00:32.515Z,-4.4
2018-03-19T02:01:34.940Z,-4.4
2018-03-19T02:02:37.640Z,-4.4
2018-03-19T02:03:40.054Z,-4.4
2018-03-19T02:04:42.476Z,-4.4
2018-03-19T02:05:44.893Z,-4.5
2018-03-19T02:06:47.321Z,-4.5
2018-03-19T02:07:49.729Z,-4.5
2018-03-19T02:08:52.139Z,-4.5
2018-03-19T02:09:54.863Z,-4.5
2018-03-19T02:10:57.577Z,-4.5
2018-03-19T02:11:59.994Z,-4.5
2018-03-19T02:13:02.408Z,-4.5
2018-03-19T02:14:04.862Z,-4.5
2018-03-19T02:15:07.825Z,-4.5
2018-03-19T02:16:10.541Z,-4.5
2018-03-19T02:17:13.229Z,-4.5
2018-03-19T02:18:15.652Z,-4.5
2018-03-19T02:19:18.073Z,-4.5
2018-03-19T02:20:20.490Z,-4.6
2018-03-19T02:21:22.911Z,-4.6
2018-03-19T02:22:25.638Z,-4.6
2018-03-19T02:23:28.052Z,-4.6
2018-03-19T02:24:30.468Z,-4.6
2018-03-19T02:25:32.880Z,-4.6
2018-03-19T02:26:35.299Z,-4.6
2018-03-19T02:27:37.712Z,-4.6
2018-03-19T02:28:40.414Z,-4.6
2018-03-19T02:29:42.832Z,-4.6
2018-03-19T02:30:45.246Z,-4.6
2018-03-19T02:31:47.676Z,-4.6
2018-03-19T02:32:50.086Z,-4.6
2018-03-19T02:33:52.503Z,-4.6
2018-03-19T02:34:54.933Z,-4.6
2018-03-19T02:35:57.352Z,-4.6
2018-03-19T02:37:00.064Z,-4.6
2018-03-19T02:38:02.825Z,-4.6
2018-03-19T02:39:05.230Z,-4.5
2018-03-19T02:40:07.648Z,-4.5
2018-03-19T02:41:10.066Z,-4.5
2018-03-19T02:42:12.748Z,-4.6
2018-03-19T02:43:15.767Z,-4.6
2018-03-19T02:44:18.186Z,-4.6
2018-03-19T02:45:20.609Z,-4.6
2018-03-19T02:46:23.021Z,-4.6
2018-03-19T02:47:25.439Z,-4.6
2018-03-19T02:48:28.150Z,-4.6
2018-03-19T02:49:30.572Z,-4.6
2018-03-19T02:50:32.980Z,-4.6
2018-03-19T02:51:35.389Z,-4.6
2018-03-19T02:52:37.803Z,-4.7
2018-03-19T02:53:40.220Z,-4.8
2018-03-19T02:54:42.633Z,-4.7
2018-03-19T02:55:45.046Z,-4.7
2018-03-19T02:56:47.766Z,-4.6
2018-03-19T02:57:50.478Z,-4.6
2018-03-19T02:58:52.883Z,-4.7
2018-03-19T02:59:55.309Z,-4.7
2018-03-19T03:00:57.731Z,-4.7
2018-03-19T03:02:00.159Z,-4.7
2018-03-19T03:03:02.556Z,-4.6
2018-03-19T03:04:05.248Z,-4.6
2018-03-19T03:05:07.676Z,-4.6
2018-03-19T03:06:10.090Z,-4.6
2018-03-19T03:07:12.792Z,-4.6
2018-03-19T03:08:15.490Z,-4.7
2018-03-19T03:09:17.916Z,-4.6
2018-03-19T03:10:20.323Z,-4.5
2018-03-19T03:11:22.730Z,-4.6
2018-03-19T03:12:25.435Z,-4.7
2018-03-19T03:13:27.853Z,-4.7
2018-03-19T03:14:30.274Z,-4.7
2018-03-19T03:15:32.692Z,-4.6
2018-03-19T03:16:35.396Z,-4.6
2018-03-19T03:17:37.813Z,-4.6
2018-03-19T03:18:40.222Z,-4.6
2018-03-19T03:19:42.635Z,-4.7
2018-03-19T03:20:45.043Z,-4.7
2018-03-19T03:21:47.729Z,-4.7
2018-03-19T03:22:50.147Z,-4.6
2018-03-19T03:23:52.558Z,-4.7
2018-03-19T03:24:54.979Z,-4.7
2018-03-19T03:25:57.399Z,-4.6
2018-03-19T03:26:59.809Z,-4.7
2018-03-19T03:28:02.226Z,-4.6
2018-03-19T03:29:04.643Z,-4.7
2018-03-19T03:30:07.052Z,-4.7
2018-03-19T03:31:09.475Z,-4.8
2018-03-19T03:32:11.882Z,-4.8
2018-03-19T03:33:14.296Z,-4.8
2018-03-19T03:34:16.712Z,-4.8
2018-03-19T03:35:19.136Z,-4.8
2018-03-19T03:36:21.851Z,-4.8
2018-03-19T03:37:24.270Z,-4.8
2018-03-19T03:38:26.967Z,-4.9
2018-03-19T03:39:29.395Z,-4.9
2018-03-19T03:40:31.810Z,-4.9
2018-03-19T03:41:34.206Z,-4.9
2018-03-19T03:42:36.635Z,-4.9
2018-03-19T03:43:39.051Z,-5
2018-03-19T03:44:41.472Z,-4.9
2018-03-19T03:45:43.883Z,-4.8
2018-03-19T03:46:46.295Z,-4.9
2018-03-19T03:47:49.294Z,-5
2018-03-19T03:48:51.721Z,-5
2018-03-19T03:49:54.130Z,-4.9
2018-03-19T03:50:56.539Z,-4.9
2018-03-19T03:51:58.961Z,-4.9
2018-03-19T03:53:01.383Z,-5
2018-03-19T03:54:03.794Z,-4.9
2018-03-19T03:55:06.218Z,-5
2018-03-19T03:56:08.620Z,-5
2018-03-19T03:57:11.043Z,-5
2018-03-19T03:58:13.746Z,-5
2018-03-19T03:59:16.441Z,-5
2018-03-19T04:00:18.870Z,-5
2018-03-19T04:01:21.283Z,-5.1
2018-03-19T04:02:23.698Z,-5.1
2018-03-19T04:03:26.125Z,-5.1
2018-03-19T04:04:28.543Z,-5.1
2018-03-19T04:05:31.239Z,-5.1
2018-03-19T04:06:33.983Z,-5.1
2018-03-19T04:07:36.407Z,-5.1
2018-03-19T04:08:38.822Z,-5.1
2018-03-19T04:09:41.241Z,-5.1
2018-03-19T04:10:43.651Z,-5.1
2018-03-19T04:11:46.643Z,-5.1
2018-03-19T04:12:49.066Z,-5.2
2018-03-19T04:13:51.478Z,-5.1
2018-03-19T04:14:53.883Z,-5.1
2018-03-19T04:15:56.298Z,-5.1
2018-03-19T04:16:58.713Z,-5.1
2018-03-19T04:18:01.716Z,-5.1
2018-03-19T04:19:04.134Z,-5.1
2018-03-19T04:20:06.840Z,-5.1
2018-03-19T04:21:09.257Z,-5.2
2018-03-19T04:22:11.691Z,-5.2
2018-03-19T04:23:14.109Z,-5.1
2018-03-19T04:24:16.514Z,-5.1
2018-03-19T04:25:18.923Z,-5.2
2018-03-19T04:26:21.350Z,-5.1
2018-03-19T04:27:23.752Z,-5.1
2018-03-19T04:28:26.459Z,-5.1
2018-03-19T04:29:28.892Z,-5.2
2018-03-19T04:30:31.592Z,-5.2
2018-03-19T04:31:34.312Z,-5.3
2018-03-19T04:32:37.016Z,-5.3
2018-03-19T04:33:39.459Z,-5.2
2018-03-19T04:34:41.854Z,-5.2
2018-03-19T04:35:44.564Z,-5.2
2018-03-19T04:36:46.967Z,-5.3
2018-03-19T04:37:49.999Z,-5.3
2018-03-19T04:38:52.409Z,-5.2
2018-03-19T04:39:54.828Z,-5.3
2018-03-19T04:40:57.251Z,-5.2
2018-03-19T04:41:59.663Z,-5.3
2018-03-19T04:43:03.090Z,-5.3
2018-03-19T04:44:05.451Z,-5.2
2018-03-19T04:45:07.864Z,-5.3
2018-03-19T04:46:10.289Z,-5.3
2018-03-19T04:47:12.700Z,-5.3
2018-03-19T04:48:15.115Z,-5.3
2018-03-19T04:49:17.531Z,-5.3
2018-03-19T04:50:19.955Z,-5.3
2018-03-19T04:51:22.396Z,-5.3
2018-03-19T04:52:24.803Z,-5.3
2018-03-19T04:53:27.231Z,-5.3
2018-03-19T04:54:29.640Z,-5.3
2018-03-19T04:55:32.047Z,-5.3
2018-03-19T04:56:34.460Z,-5.3
2018-03-19T04:57:36.923Z,-5.4
2018-03-19T04:58:39.581Z,-5.3
2018-03-19T04:59:42.284Z,-5.4
2018-03-19T05:00:44.693Z,-5.4
2018-03-19T05:01:47.114Z,-5.4
2018-03-19T05:02:50.149Z,-5.4
2018-03-19T05:03:52.549Z,-5.5
2018-03-19T05:04:54.962Z,-5.4
2018-03-19T05:05:57.659Z,-5.4
2018-03-19T05:07:00.082Z,-5.4
2018-03-19T05:08:02.497Z,-5.4
2018-03-19T05:09:04.914Z,-5.4
2018-03-19T05:10:07.612Z,-5.5
2018-03-19T05:11:10.049Z,-5.5
2018-03-19T05:12:12.439Z,-5.5
2018-03-19T05:13:15.153Z,-5.5
2018-03-19T05:14:17.842Z,-5.5
2018-03-19T05:15:20.263Z,-5.4
2018-03-19T05:16:22.678Z,-5.4
2018-03-19T05:17:25.092Z,-5.3
2018-03-19T05:18:27.516Z,-5.3
2018-03-19T05:19:29.925Z,-5.3
2018-03-19T05:20:32.334Z,-5.3
2018-03-19T05:21:34.769Z,-5.3
2018-03-19T05:22:37.181Z,-5.3
2018-03-19T05:23:39.595Z,-5.3
2018-03-19T05:24:42.007Z,-5.4
2018-03-19T05:25:44.422Z,-5.4
2018-03-19T05:26:46.829Z,-5.4
2018-03-19T05:27:49.257Z,-5.4
2018-03-19T05:28:51.680Z,-5.3
2018-03-19T05:29:54.094Z,-5.3
2018-03-19T05:30:56.518Z,-5.3
2018-03-19T05:31:59.242Z,-5.3
2018-03-19T05:33:01.658Z,-5.3
2018-03-19T05:34:04.076Z,-5.3
2018-03-19T05:35:06.763Z,-5.3
2018-03-19T05:36:09.185Z,-5.3
2018-03-19T05:37:11.887Z,-5.3
2018-03-19T05:38:14.573Z,-5.3
2018-03-19T05:39:16.992Z,-5.3
2018-03-19T05:40:19.410Z,-5.3
2018-03-19T05:41:21.825Z,-5.2
2018-03-19T05:42:24.244Z,-5.2
2018-03-19T05:43:26.665Z,-5.2
2018-03-19T05:44:29.080Z,-5.2
2018-03-19T05:45:31.510Z,-5.2
2018-03-19T05:46:33.920Z,-5.2
2018-03-19T05:47:36.331Z,-5.2
2018-03-19T05:48:39.319Z,-5.1
2018-03-19T05:49:41.736Z,-5.1
2018-03-19T05:50:44.150Z,-5.1
2018-03-19T05:51:46.567Z,-5
2018-03-19T05:52:48.977Z,-5
2018-03-19T05:53:51.399Z,-5
2018-03-19T05:54:54.098Z,-5
2018-03-19T05:55:57.565Z,-5
2018-03-19T05:57:01.144Z,-5
2018-03-19T05:58:03.553Z,-5.1
2018-03-19T05:59:06.253Z,-5.1
2018-03-19T06:00:08.954Z,-5.1
2018-03-19T06:01:11.371Z,-5
2018-03-19T06:02:13.793Z,-5
2018-03-19T06:03:16.209Z,-5
2018-03-19T06:04:18.628Z,-5
2018-03-19T06:05:21.042Z,-4.9
2018-03-19T06:06:23.464Z,-4.9
2018-03-19T06:07:25.880Z,-4.9
2018-03-19T06:08:28.307Z,-4.8
2018-03-19T06:09:30.708Z,-4.8
2018-03-19T06:10:33.123Z,-4.8
2018-03-19T06:11:35.558Z,-4.8
2018-03-19T06:12:37.968Z,-4.8
2018-03-19T06:13:40.688Z,-4.7
2018-03-19T06:14:43.094Z,-4.8
2018-03-19T06:15:45.513Z,-4.7
2018-03-19T06:16:47.937Z,-4.6
2018-03-19T06:17:50.356Z,-4.5
2018-03-19T06:18:52.763Z,-4.6
2018-03-19T06:19:55.178Z,-4.5
2018-03-19T06:20:57.623Z,-4.4
2018-03-19T06:22:00.030Z,-4.4
2018-03-19T06:23:02.446Z,-4.4
2018-03-19T06:24:05.150Z,-4.3
2018-03-19T06:25:07.567Z,-4.2
2018-03-19T06:26:09.974Z,-4.2
2018-03-19T06:27:12.390Z,-4.2
2018-03-19T06:28:14.811Z,-4.2
2018-03-19T06:29:17.227Z,-4.2
2018-03-19T06:30:19.641Z,-4.1
2018-03-19T06:31:22.348Z,-4.1
2018-03-19T06:32:25.587Z,-4.1
2018-03-19T06:33:28.246Z,-4.1
2018-03-19T06:34:30.661Z,-4
2018-03-19T06:35:33.067Z,-4
2018-03-19T06:36:35.487Z,-4
2018-03-19T06:37:37.899Z,-4
2018-03-19T06:38:40.600Z,-3.9
2018-03-19T06:39:43.014Z,-3.9
2018-03-19T06:40:45.438Z,-3.9
2018-03-19T06:41:47.852Z,-3.9
2018-03-19T06:42:50.287Z,-3.8
2018-03-19T06:43:53.275Z,-3.8
2018-03-19T06:44:55.703Z,-3.7
2018-03-19T06:45:58.120Z,-3.7
2018-03-19T06:47:00.537Z,-3.7
2018-03-19T06:48:03.239Z,-3.7
2018-03-19T06:49:05.656Z,-3.7
2018-03-19T06:50:08.355Z,-3.6
2018-03-19T06:51:10.770Z,-3.6
2018-03-19T06:52:13.195Z,-3.5
2018-03-19T06:53:16.190Z,-3.5
2018-03-19T06:54:18.606Z,-3.5
2018-03-19T06:55:21.029Z,-3.5
2018-03-19T06:56:23.733Z,-3.5
2018-03-19T06:57:26.148Z,-3.4
2018-03-19T06:58:28.583Z,-3.4
2018-03-19T06:59:30.987Z,-3.4
2018-03-19T07:00:33.414Z,-3.3
2018-03-19T07:01:36.119Z,-3.3
2018-03-19T07:02:38.525Z,-3.3
2018-03-19T07:03:40.943Z,-3.2
2018-03-19T07:04:43.354Z,-3.2
2018-03-19T07:05:46.063Z,-3.2
2018-03-19T07:06:48.480Z,-3.2
2018-03-19T07:07:50.899Z,-3.2
2018-03-19T07:08:53.311Z,-3.2
2018-03-19T07:09:55.739Z,-3.1
2018-03-19T07:10:58.154Z,-3.1
2018-03-19T07:12:00.578Z,-3
2018-03-19T07:13:03.284Z,-3
2018-03-19T07:14:06.005Z,-3
2018-03-19T07:15:08.422Z,-3
2018-03-19T07:16:10.845Z,-2.9
2018-03-19T07:17:13.589Z,-2.9
2018-03-19T07:18:16.296Z,-2.9
2018-03-19T07:19:18.704Z,-2.9
2018-03-19T07:20:21.120Z,-2.8
2018-03-19T07:21:23.543Z,-2.7
2018-03-19T07:22:26.237Z,-2.7
2018-03-19T07:23:28.663Z,-2.7
2018-03-19T07:24:31.082Z,-2.6
2018-03-19T07:25:33.501Z,-2.5
2018-03-19T07:26:36.212Z,-2.5
2018-03-19T07:27:38.635Z,-2.5
2018-03-19T07:28:41.061Z,-2.5
2018-03-19T07:29:43.476Z,-2.4
2018-03-19T07:30:45.885Z,-2.4
2018-03-19T07:31:48.303Z,-2.3
2018-03-19T07:32:50.737Z,-2.3
2018-03-19T07:33:53.182Z,-2.3
2018-03-19T07:34:55.570Z,-2.2
2018-03-19T07:35:57.989Z,-2.2
2018-03-19T07:37:00.406Z,-2.2
2018-03-19T07:38:02.820Z,-2.1
2018-03-19T07:39:05.244Z,-2.1
2018-03-19T07:40:07.952Z,-2.1
2018-03-19T07:41:10.379Z,-2
2018-03-19T07:42:12.800Z,-2
2018-03-19T07:43:15.212Z,-2.1
2018-03-19T07:44:17.644Z,-1.9
2018-03-19T07:45:20.347Z,-1.8
2018-03-19T07:46:23.042Z,-1.7
2018-03-19T07:47:25.465Z,-1.7
2018-03-19T07:48:27.888Z,-1.6
2018-03-19T07:49:30.312Z,-1.6
2018-03-19T07:50:32.741Z,-1.5
2018-03-19T07:51:35.156Z,-1.4
2018-03-19T07:52:38.164Z,-1.3
2018-03-19T07:53:40.590Z,-1.1
2018-03-19T07:54:43.010Z,-0.8
2018-03-19T07:55:45.430Z,-0.6
2018-03-19T07:56:47.868Z,-0.3
2018-03-19T07:57:50.272Z,-0.3
2018-03-19T07:58:52.987Z,0
2018-03-19T07:59:55.412Z,0
2018-03-19T08:00:57.825Z,0.1
2018-03-19T08:02:00.248Z,0.1
2018-03-19T08:03:02.955Z,0.1
2018-03-19T08:04:05.371Z,-0.1
2018-03-19T08:05:07.801Z,0
2018-03-19T08:06:10.218Z,0
2018-03-19T08:07:12.651Z,0.1
2018-03-19T08:08:15.361Z,0.6
2018-03-19T08:09:17.796Z,0.5
2018-03-19T08:10:20.235Z,0.8
2018-03-19T08:11:22.658Z,0.8
2018-03-19T08:12:25.086Z,0.8
2018-03-19T08:13:27.509Z,1
2018-03-19T08:14:29.928Z,1.2
2018-03-19T08:15:32.401Z,1.1
2018-03-19T08:16:34.766Z,1.3
2018-03-19T08:17:37.193Z,1.4
2018-03-19T08:18:39.656Z,1.3
2018-03-19T08:19:42.373Z,1.5
2018-03-19T08:20:45.371Z,1.6
2018-03-19T08:21:48.114Z,1.4
2018-03-19T08:22:50.528Z,1.9
2018-03-19T08:23:53.246Z,1.7
2018-03-19T08:24:55.954Z,1.8
2018-03-19T08:25:58.399Z,1.5
2018-03-19T08:27:00.810Z,1.7
2018-03-19T08:28:03.247Z,1.4
2018-03-19T08:29:05.691Z,1.6
2018-03-19T08:30:09.251Z,2
2018-03-19T08:31:11.732Z,2.2
2018-03-19T08:32:14.156Z,2.2
2018-03-19T08:33:16.594Z,1.9
2018-03-19T08:34:19.028Z,1.8
2018-03-19T08:35:21.458Z,1.9
2018-03-19T08:36:24.249Z,2.1
2018-03-19T08:37:26.806Z,2.4
2018-03-19T08:38:36.060Z,2.1
2018-03-19T08:39:44.837Z,2.3
2018-03-19T08:40:47.608Z,2.1
2018-03-19T08:41:51.865Z,2.2
2018-03-19T08:42:55.013Z,2.2
2018-03-19T08:43:59.606Z,2.8
2018-03-19T08:45:02.874Z,3.5
2018-03-19T08:46:06.896Z,2.9
2018-03-19T08:47:10.827Z,2.8
2018-03-19T08:48:13.830Z,2.6
2018-03-19T08:49:17.241Z,2.8
2018-03-19T08:50:20.297Z,3.4
2018-03-19T08:51:24.747Z,2.6
2018-03-19T08:52:27.399Z,2.7
2018-03-19T08:53:29.837Z,2.4
2018-03-19T08:54:32.261Z,3
2018-03-19T08:55:34.703Z,3.3
2018-03-19T08:56:37.142Z,3.8
2018-03-19T08:57:39.861Z,4.1
2018-03-19T08:58:42.307Z,4.1
2018-03-19T08:59:45.044Z,3.5
2018-03-19T09:00:47.476Z,3.8
2018-03-19T09:01:49.927Z,4
2018-03-19T09:02:52.366Z,2.7
2018-03-19T09:03:54.808Z,2.9
2018-03-19T09:04:57.246Z,3
2018-03-19T09:05:59.675Z,3.9
2018-03-19T09:07:02.113Z,4
2018-03-19T09:08:04.566Z,4.3
2018-03-19T09:09:07.000Z,4.6
2018-03-19T09:10:09.439Z,4.5
2018-03-19T09:11:11.871Z,4.6
2018-03-19T09:12:14.305Z,4.8
2018-03-19T09:13:16.754Z,4.7
2018-03-19T09:14:19.198Z,4.6
2018-03-19T09:15:21.618Z,4.4
2018-03-19T09:16:24.063Z,4
2018-03-19T09:17:26.512Z,3.6
2018-03-19T09:18:28.958Z,4.3
2018-03-19T09:19:31.397Z,4.6
2018-03-19T09:20:33.850Z,4.8
2018-03-19T09:21:36.290Z,4.9
2018-03-19T09:22:38.715Z,5
2018-03-19T09:23:41.750Z,5
2018-03-19T09:24:44.186Z,5.2
2018-03-19T09:25:46.631Z,5
2018-03-19T09:26:49.070Z,5.1
2018-03-19T09:27:51.794Z,5.1
2018-03-19T09:28:54.524Z,5.2
2018-03-19T09:29:57.266Z,5.4
2018-03-19T09:30:59.703Z,5.7
2018-03-19T09:32:02.142Z,5.5
2018-03-19T09:33:04.889Z,4.9
2018-03-19T09:34:07.622Z,4.9
2018-03-19T09:35:10.122Z,4.8
2018-03-19T09:36:12.898Z,5
2018-03-19T09:37:15.330Z,5
2018-03-19T09:38:17.769Z,5.1
2018-03-19T09:39:20.201Z,5.4
2018-03-19T09:40:22.644Z,5.6
2018-03-19T09:41:25.084Z,5.3
2018-03-19T09:42:27.531Z,5.4
2018-03-19T09:43:29.971Z,5.8
2018-03-19T09:44:32.407Z,5.8
2018-03-19T09:45:34.854Z,5.8
2018-03-19T09:46:37.288Z,5.1
2018-03-19T09:47:39.721Z,5.6
2018-03-19T09:48:42.468Z,5.7
2018-03-19T09:49:44.903Z,5.2
2018-03-19T09:50:47.654Z,5.8
2018-03-19T09:51:50.076Z,6.1
2018-03-19T09:52:52.522Z,6.6
2018-03-19T09:53:55.257Z,6.1
2018-03-19T09:54:57.698Z,5.6
2018-03-19T09:56:00.150Z,5.9
2018-03-19T09:57:02.583Z,6.2
2018-03-19T09:58:05.038Z,6.3
2018-03-19T09:59:07.474Z,6.1
2018-03-19T10:00:10.197Z,6.2
2018-03-19T10:01:12.633Z,6.4
2018-03-19T10:02:15.076Z,6
2018-03-19T10:03:17.521Z,6
2018-03-19T10:04:20.272Z,6.6
2018-03-19T10:05:22.708Z,6
2018-03-19T10:06:25.145Z,6.4
2018-03-19T10:07:27.621Z,5.9
2018-03-19T10:08:30.218Z,5.9
2018-03-19T10:09:32.750Z,6.2
2018-03-19T10:10:35.615Z,6.1
2018-03-19T10:11:38.506Z,6.6
2018-03-19T10:12:40.963Z,6.2
2018-03-19T10:13:43.712Z,5.7
2018-03-19T10:14:47.336Z,6.4
2018-03-19T10:15:50.302Z,6.6
2018-03-19T10:16:52.987Z,6.8
2018-03-19T10:17:55.753Z,6.9
2018-03-19T10:19:28.341Z,6.6
2018-03-19T10:20:30.775Z,6.9
2018-03-19T10:21:33.245Z,6.2
2018-03-19T10:22:35.654Z,5.7
2018-03-19T10:23:38.108Z,5.7
2018-03-19T10:24:40.550Z,5.7
2018-03-19T10:25:42.990Z,6.4
2018-03-19T10:26:45.428Z,6.4
2018-03-19T10:27:47.873Z,6.7
2018-03-19T10:28:50.323Z,7.1
2018-03-19T10:29:53.068Z,6.6
2018-03-19T10:30:55.512Z,6.7
2018-03-19T10:31:57.957Z,6.9
2018-03-19T10:33:00.396Z,6.7
2018-03-19T10:34:02.849Z,7.3
2018-03-19T10:35:05.288Z,7.5
2018-03-19T10:36:07.732Z,7.1
2018-03-19T10:37:10.168Z,7.2
2018-03-19T10:38:12.908Z,6.6
2018-03-19T10:39:15.920Z,6.6
2018-03-19T10:40:18.362Z,7.5
2018-03-19T10:41:20.799Z,7.6
2018-03-19T10:42:23.240Z,7.2
2018-03-19T10:43:25.968Z,7
2018-03-19T10:44:28.473Z,7
2018-03-19T10:45:30.847Z,7.4
2018-03-19T10:46:33.586Z,7.2
2018-03-19T10:47:36.040Z,7.1
2018-03-19T10:48:38.482Z,7.7
2018-03-19T10:49:41.222Z,7.9
2018-03-19T10:50:44.233Z,8
2018-03-19T10:51:46.964Z,8.4
2018-03-19T10:52:49.491Z,8.3
2018-03-19T10:53:51.851Z,8.4
2018-03-19T10:54:54.289Z,7.8
2018-03-19T10:55:56.744Z,8.1
2018-03-19T10:56:59.174Z,8.1
2018-03-19T10:58:01.621Z,7.2
2018-03-19T10:59:04.060Z,7.5
2018-03-19T11:00:06.505Z,8
2018-03-19T11:01:08.951Z,8.3
2018-03-19T11:02:11.686Z,7.9
2018-03-19T11:03:14.122Z,8
2018-03-19T11:04:16.569Z,8.2
2018-03-19T11:05:19.290Z,7.9
2018-03-19T11:06:22.100Z,6.6
2018-03-19T11:07:24.542Z,6.9
2018-03-19T11:08:26.987Z,7.9
2018-03-19T11:09:29.710Z,8.4
2018-03-19T11:10:32.448Z,7.4
2018-03-19T11:11:34.875Z,7.7
2018-03-19T11:12:37.337Z,8
2018-03-19T11:13:39.770Z,8.3
2018-03-19T11:14:42.212Z,8.4
2018-03-19T11:15:44.655Z,8.9
2018-03-19T11:16:47.098Z,7.7
2018-03-19T11:17:49.835Z,8.3
2018-03-19T11:18:52.575Z,8.7
2018-03-19T11:19:55.015Z,8.6
2018-03-19T11:20:57.457Z,8.2
2018-03-19T11:22:00.170Z,8.3
2018-03-19T11:23:02.659Z,8.7
2018-03-19T11:24:05.365Z,7.9
2018-03-19T11:25:08.106Z,8.2
2018-03-19T11:26:10.545Z,8.1
2018-03-19T11:27:13.277Z,8.8
2018-03-19T11:28:15.722Z,8.8
2018-03-19T11:29:18.456Z,8.4
2018-03-19T11:30:20.893Z,8.8
2018-03-19T11:31:23.991Z,9.3
2018-03-19T11:32:26.380Z,8.6
2018-03-19T11:33:28.823Z,8.5
2018-03-19T11:34:31.272Z,8.7
2018-03-19T11:35:34.017Z,8.6
2018-03-19T11:36:36.448Z,8.8
2018-03-19T11:37:39.465Z,8.9
2018-03-19T11:38:41.914Z,9.1
2018-03-19T11:39:44.646Z,8.7
2018-03-19T11:40:47.148Z,8.7
2018-03-19T11:41:49.542Z,8.6
2018-03-19T11:42:52.323Z,9.2
2018-03-19T11:43:54.778Z,8.6
2018-03-19T11:44:57.235Z,8.8
2018-03-19T11:46:00.235Z,8.8
2018-03-19T11:47:02.696Z,9.5
2018-03-19T11:48:05.418Z,9.4
2018-03-19T11:49:07.856Z,9.2
2018-03-19T11:50:10.298Z,9.4
2018-03-19T11:51:12.754Z,9.4
2018-03-19T11:52:15.482Z,9.5
2018-03-19T11:53:17.923Z,9.3
2018-03-19T11:54:20.381Z,9.1
2018-03-19T11:55:23.096Z,9.5
2018-03-19T11:56:25.543Z,9.6
2018-03-19T11:57:28.568Z,9.9
2018-03-19T11:58:31.342Z,9.4
2018-03-19T11:59:33.738Z,9.8
2018-03-19T12:00:36.468Z,9.7
2018-03-19T12:01:39.198Z,9.1
2018-03-19T12:02:41.652Z,8.6
2018-03-19T12:03:44.089Z,9
2018-03-19T12:04:46.890Z,9.8
2018-03-19T12:05:49.271Z,9.5
2018-03-19T12:06:51.713Z,9.9
2018-03-19T12:07:54.149Z,9.8
2018-03-19T12:08:56.598Z,9.8
2018-03-19T12:09:59.026Z,10.3
2018-03-19T12:11:01.772Z,9.6
2018-03-19T12:12:04.210Z,10.1
2018-03-19T12:13:06.942Z,9.8
2018-03-19T12:14:09.391Z,9.7
2018-03-19T12:15:11.831Z,9
2018-03-19T12:16:14.568Z,9.7
2018-03-19T12:17:17.015Z,8.9
2018-03-19T12:18:19.464Z,9.1
2018-03-19T12:19:21.907Z,9.1
2018-03-19T12:20:24.364Z,9.2
2018-03-19T12:21:26.819Z,9.8
2018-03-19T12:22:29.550Z,9.4
2018-03-19T12:23:31.995Z,9.3
2018-03-19T12:24:34.446Z,9.2
2018-03-19T12:25:37.173Z,9.4
2018-03-19T12:26:39.909Z,8.5
2018-03-19T12:27:42.360Z,8.9
2018-03-19T12:28:44.782Z,8.7
2018-03-19T12:29:47.232Z,8.6
2018-03-19T12:30:49.678Z,9.2
2018-03-19T12:31:52.416Z,9.7
2018-03-19T12:32:54.859Z,9.6
2018-03-19T12:33:57.291Z,9.6
2018-03-19T12:35:00.026Z,9.5
2018-03-19T12:36:02.483Z,9.9
2018-03-19T12:37:04.923Z,10.2
2018-03-19T12:38:07.373Z,10.1
2018-03-19T12:39:09.821Z,9.9
2018-03-19T12:40:12.836Z,10.4
2018-03-19T12:41:15.289Z,10.5
2018-03-19T12:42:17.740Z,9.4
2018-03-19T12:43:20.173Z,9.8
2018-03-19T12:44:22.632Z,9.6
2018-03-19T12:45:25.359Z,9.6
2018-03-19T12:46:27.798Z,9.7
2018-03-19T12:47:30.528Z,9.9
2018-03-19T12:48:32.975Z,9.8
2018-03-19T12:49:35.416Z,9.4
2018-03-19T12:50:37.857Z,9.9
2018-03-19T12:51:40.879Z,9.3
2018-03-19T12:52:43.329Z,9.7
2018-03-19T12:53:46.049Z,9.4
2018-03-19T12:54:48.482Z,8.7
2018-03-19T12:55:50.927Z,8.8
2018-03-19T12:56:53.370Z,9.1
2018-03-19T12:57:55.826Z,9.2
2018-03-19T12:58:58.568Z,9.9
2018-03-19T13:00:01.015Z,9.6
2018-03-19T13:01:03.459Z,9.9
2018-03-19T13:02:06.248Z,9.6
2018-03-19T13:03:08.679Z,9.7
2018-03-19T13:04:11.119Z,9.9
2018-03-19T13:05:13.566Z,9.7
2018-03-19T13:06:16.617Z,9.1
2018-03-19T13:07:19.064Z,8.9
2018-03-19T13:08:21.506Z,8.7
2018-03-19T13:09:24.213Z,8.5
2018-03-19T13:10:26.950Z,8.3
2018-03-19T13:11:29.393Z,9.1
2018-03-19T13:12:31.835Z,9.9
2018-03-19T13:13:34.284Z,9.7
2018-03-19T13:14:36.718Z,9.4
2018-03-19T13:15:39.156Z,9.1
2018-03-19T13:16:41.619Z,9.4
2018-03-19T13:17:44.097Z,9.8
2018-03-19T13:18:46.494Z,9.8
2018-03-19T13:19:48.939Z,9.4
2018-03-19T13:20:51.383Z,9.2
2018-03-19T13:21:53.821Z,8.4
2018-03-19T13:22:56.571Z,8.6
2018-03-19T13:23:59.034Z,9.7
2018-03-19T13:25:01.500Z,9.8
2018-03-19T13:26:03.947Z,10
2018-03-19T13:27:06.686Z,9.5
2018-03-19T13:28:09.127Z,9.4
2018-03-19T13:29:11.571Z,9
2018-03-19T13:30:14.017Z,9.4
2018-03-19T13:31:16.466Z,9
2018-03-19T13:32:19.191Z,9.4
2018-03-19T13:33:21.647Z,9.1
2018-03-19T13:34:24.113Z,9.8
2018-03-19T13:35:27.144Z,9.7
2018-03-19T13:36:29.584Z,9.8
2018-03-19T13:37:32.029Z,9.6
2018-03-19T13:38:34.470Z,9.6
2018-03-19T13:39:36.910Z,9.7
2018-03-19T13:40:39.636Z,9.9
2018-03-19T13:41:42.065Z,9.4
2018-03-19T13:42:44.513Z,9.9
2018-03-19T13:43:46.955Z,10.2
2018-03-19T13:44:49.405Z,9.8
2018-03-19T13:45:51.852Z,9.5
2018-03-19T13:46:54.571Z,9.2
2018-03-19T13:47:57.019Z,8.6
2018-03-19T13:48:59.461Z,9.1
2018-03-19T13:50:01.919Z,8.8
2018-03-19T13:51:04.351Z,8.5
2018-03-19T13:52:06.800Z,8.1
2018-03-19T13:53:09.236Z,8.3
2018-03-19T13:54:12.256Z,8.2
2018-03-19T13:55:14.697Z,8.3
2018-03-19T13:56:17.425Z,8.6
2018-03-19T13:57:19.859Z,8.7
2018-03-19T13:58:22.953Z,8.6
2018-03-19T13:59:25.342Z,8.2
2018-03-19T14:00:27.790Z,8.8
2018-03-19T14:01:30.222Z,9.2
2018-03-19T14:02:32.958Z,8.1
2018-03-19T14:03:35.403Z,8.7
2018-03-19T14:04:37.847Z,8.9
2018-03-19T14:05:40.323Z,9.5
2018-03-19T14:06:42.724Z,9.1
2018-03-19T14:07:45.155Z,8.7
2018-03-19T14:08:47.608Z,8.5
2018-03-19T14:09:50.038Z,8.5